sensor_id;sensor_type;location;lat;lon;timestamp;P1;durP1;ratioP1;P2;durP2;ratioP2
12429;SDS011;6279;42.192;24.326;2023-05-07T00:01:47;6.03;;;5.10;;
12429;SDS011;6279;42.192;24.326;2023-05-07T00:04:12;8.47;;;4.90;;
12429;SDS011;6279;42.192;24.326;2023-05-07T00:06:38;7.47;;;4.70;;
12429;SDS011;6279;42.192;24.326;2023-05-07T00:09:04;7.17;;;5.03;;
12429;SDS011;6279;42.192;24.326;2023-05-07T00:11:30;5.43;;;4.70;;
12429;SDS011;6279;42.192;24.326;2023-05-07T00:13:56;7.57;;;5.00;;
12429;SDS011;6279;42.192;24.326;2023-05-07T00:16:22;4.97;;;4.33;;
12429;SDS011;6279;42.192;24.326;2023-05-07T00:18:47;5.60;;;4.03;;
12429;SDS011;6279;42.192;24.326;2023-05-07T00:21:13;5.40;;;4.60;;
12429;SDS011;6279;42.192;24.326;2023-05-07T00:23:38;6.13;;;4.17;;
12429;SDS011;6279;42.192;24.326;2023-05-07T00:26:04;4.93;;;4.10;;
12429;SDS011;6279;42.192;24.326;2023-05-07T00:28:29;6.70;;;4.17;;
12429;SDS011;6279;42.192;24.326;2023-05-07T00:30:55;6.67;;;4.33;;
12429;SDS011;6279;42.192;24.326;2023-05-07T00:33:21;6.57;;;5.03;;
12429;SDS011;6279;42.192;24.326;2023-05-07T00:35:47;7.47;;;4.83;;
12429;SDS011;6279;42.192;24.326;2023-05-07T00:38:12;5.00;;;4.50;;
12429;SDS011;6279;42.192;24.326;2023-05-07T00:40:38;6.87;;;4.60;;
12429;SDS011;6279;42.192;24.326;2023-05-07T00:43:03;7.23;;;4.70;;
12429;SDS011;6279;42.192;24.326;2023-05-07T00:45:29;7.30;;;4.67;;
12429;SDS011;6279;42.192;24.326;2023-05-07T00:47:59;6.50;;;4.83;;
12429;SDS011;6279;42.192;24.326;2023-05-07T00:50:25;8.60;;;4.77;;
12429;SDS011;6279;42.192;24.326;2023-05-07T00:52:52;6.13;;;4.70;;
12429;SDS011;6279;42.192;24.326;2023-05-07T00:55:18;6.83;;;4.60;;
12429;SDS011;6279;42.192;24.326;2023-05-07T00:57:45;5.50;;;4.83;;
12429;SDS011;6279;42.192;24.326;2023-05-07T01:00:11;6.83;;;5.00;;
12429;SDS011;6279;42.192;24.326;2023-05-07T01:02:40;8.80;;;4.97;;
12429;SDS011;6279;42.192;24.326;2023-05-07T01:05:07;6.43;;;5.10;;
12429;SDS011;6279;42.192;24.326;2023-05-07T01:07:36;6.60;;;4.37;;
12429;SDS011;6279;42.192;24.326;2023-05-07T01:10:04;5.33;;;4.60;;
12429;SDS011;6279;42.192;24.326;2023-05-07T01:12:30;5.10;;;4.50;;
12429;SDS011;6279;42.192;24.326;2023-05-07T01:14:56;6.60;;;4.70;;
12429;SDS011;6279;42.192;24.326;2023-05-07T01:17:22;5.70;;;3.90;;
12429;SDS011;6279;42.192;24.326;2023-05-07T01:19:48;5.97;;;4.87;;
12429;SDS011;6279;42.192;24.326;2023-05-07T01:22:14;6.03;;;4.27;;
12429;SDS011;6279;42.192;24.326;2023-05-07T01:24:41;7.50;;;4.23;;
12429;SDS011;6279;42.192;24.326;2023-05-07T01:27:07;5.87;;;4.77;;
12429;SDS011;6279;42.192;24.326;2023-05-07T01:29:33;6.57;;;5.63;;
12429;SDS011;6279;42.192;24.326;2023-05-07T01:31:59;9.30;;;6.00;;
12429;SDS011;6279;42.192;24.326;2023-05-07T01:34:25;6.33;;;5.73;;
12429;SDS011;6279;42.192;24.326;2023-05-07T01:36:53;9.13;;;6.23;;
12429;SDS011;6279;42.192;24.326;2023-05-07T01:39:21;7.37;;;5.70;;
12429;SDS011;6279;42.192;24.326;2023-05-07T01:41:48;6.93;;;5.73;;
12429;SDS011;6279;42.192;24.326;2023-05-07T01:44:14;7.43;;;5.60;;
12429;SDS011;6279;42.192;24.326;2023-05-07T01:46:41;7.10;;;5.40;;
12429;SDS011;6279;42.192;24.326;2023-05-07T01:49:06;6.03;;;5.43;;
12429;SDS011;6279;42.192;24.326;2023-05-07T01:51:32;9.60;;;5.53;;
12429;SDS011;6279;42.192;24.326;2023-05-07T01:53:58;9.30;;;6.20;;
12429;SDS011;6279;42.192;24.326;2023-05-07T01:56:24;8.63;;;6.10;;
12429;SDS011;6279;42.192;24.326;2023-05-07T01:58:50;7.57;;;5.63;;
12429;SDS011;6279;42.192;24.326;2023-05-07T02:01:16;7.70;;;6.10;;
12429;SDS011;6279;42.192;24.326;2023-05-07T02:03:41;9.70;;;6.30;;
12429;SDS011;6279;42.192;24.326;2023-05-07T02:06:07;10.17;;;6.57;;
12429;SDS011;6279;42.192;24.326;2023-05-07T02:08:32;7.03;;;6.20;;
12429;SDS011;6279;42.192;24.326;2023-05-07T02:10:58;7.53;;;6.40;;
12429;SDS011;6279;42.192;24.326;2023-05-07T02:13:23;8.53;;;6.27;;
12429;SDS011;6279;42.192;24.326;2023-05-07T02:15:49;7.53;;;6.33;;
12429;SDS011;6279;42.192;24.326;2023-05-07T02:18:16;7.13;;;6.43;;
12429;SDS011;6279;42.192;24.326;2023-05-07T02:20:41;7.50;;;6.70;;
12429;SDS011;6279;42.192;24.326;2023-05-07T02:23:07;7.67;;;6.53;;
12429;SDS011;6279;42.192;24.326;2023-05-07T02:25:33;9.57;;;6.20;;
12429;SDS011;6279;42.192;24.326;2023-05-07T02:27:58;6.37;;;5.57;;
12429;SDS011;6279;42.192;24.326;2023-05-07T02:30:24;7.80;;;6.40;;
12429;SDS011;6279;42.192;24.326;2023-05-07T02:32:50;7.43;;;6.73;;
12429;SDS011;6279;42.192;24.326;2023-05-07T02:35:15;8.33;;;6.83;;
12429;SDS011;6279;42.192;24.326;2023-05-07T02:37:41;11.83;;;7.37;;
12429;SDS011;6279;42.192;24.326;2023-05-07T02:40:06;7.73;;;7.03;;
12429;SDS011;6279;42.192;24.326;2023-05-07T02:42:32;9.40;;;6.77;;
12429;SDS011;6279;42.192;24.326;2023-05-07T02:44:57;7.33;;;6.57;;
12429;SDS011;6279;42.192;24.326;2023-05-07T02:47:24;11.97;;;8.73;;
12429;SDS011;6279;42.192;24.326;2023-05-07T02:49:52;17.90;;;16.00;;
12429;SDS011;6279;42.192;24.326;2023-05-07T02:52:18;17.13;;;15.33;;
12429;SDS011;6279;42.192;24.326;2023-05-07T02:54:43;16.17;;;14.57;;
12429;SDS011;6279;42.192;24.326;2023-05-07T02:57:09;15.30;;;12.97;;
12429;SDS011;6279;42.192;24.326;2023-05-07T02:59:34;14.60;;;12.50;;
12429;SDS011;6279;42.192;24.326;2023-05-07T03:01:59;13.87;;;11.57;;
12429;SDS011;6279;42.192;24.326;2023-05-07T03:04:25;14.77;;;10.27;;
12429;SDS011;6279;42.192;24.326;2023-05-07T03:06:50;12.07;;;9.10;;
12429;SDS011;6279;42.192;24.326;2023-05-07T03:09:16;9.77;;;8.77;;
12429;SDS011;6279;42.192;24.326;2023-05-07T03:11:41;11.30;;;9.10;;
12429;SDS011;6279;42.192;24.326;2023-05-07T03:14:07;11.90;;;8.37;;
12429;SDS011;6279;42.192;24.326;2023-05-07T03:16:32;9.13;;;7.63;;
12429;SDS011;6279;42.192;24.326;2023-05-07T03:18:58;10.53;;;9.27;;
12429;SDS011;6279;42.192;24.326;2023-05-07T03:21:23;10.67;;;7.73;;
12429;SDS011;6279;42.192;24.326;2023-05-07T03:23:48;9.87;;;6.90;;
12429;SDS011;6279;42.192;24.326;2023-05-07T03:26:14;8.47;;;7.10;;
12429;SDS011;6279;42.192;24.326;2023-05-07T03:28:39;9.40;;;6.90;;
12429;SDS011;6279;42.192;24.326;2023-05-07T03:31:05;8.03;;;6.70;;
12429;SDS011;6279;42.192;24.326;2023-05-07T03:33:32;7.93;;;6.77;;
12429;SDS011;6279;42.192;24.326;2023-05-07T03:35:58;8.70;;;6.83;;
12429;SDS011;6279;42.192;24.326;2023-05-07T03:38:24;12.50;;;7.13;;
12429;SDS011;6279;42.192;24.326;2023-05-07T03:40:49;10.67;;;7.23;;
12429;SDS011;6279;42.192;24.326;2023-05-07T03:43:15;8.53;;;6.63;;
12429;SDS011;6279;42.192;24.326;2023-05-07T03:45:40;7.17;;;6.47;;
12429;SDS011;6279;42.192;24.326;2023-05-07T03:48:05;9.23;;;6.83;;
12429;SDS011;6279;42.192;24.326;2023-05-07T03:50:31;8.17;;;6.80;;
12429;SDS011;6279;42.192;24.326;2023-05-07T03:52:56;8.23;;;6.97;;
12429;SDS011;6279;42.192;24.326;2023-05-07T03:55:22;7.30;;;6.53;;
12429;SDS011;6279;42.192;24.326;2023-05-07T03:57:47;8.13;;;7.33;;
12429;SDS011;6279;42.192;24.326;2023-05-07T04:00:13;8.97;;;6.70;;
12429;SDS011;6279;42.192;24.326;2023-05-07T04:02:39;8.00;;;7.07;;
12429;SDS011;6279;42.192;24.326;2023-05-07T04:05:04;8.47;;;7.50;;
12429;SDS011;6279;42.192;24.326;2023-05-07T04:07:30;9.20;;;6.60;;
12429;SDS011;6279;42.192;24.326;2023-05-07T04:09:55;7.23;;;6.23;;
12429;SDS011;6279;42.192;24.326;2023-05-07T04:12:20;9.83;;;6.60;;
12429;SDS011;6279;42.192;24.326;2023-05-07T04:14:46;7.17;;;6.47;;
12429;SDS011;6279;42.192;24.326;2023-05-07T04:17:11;9.53;;;6.67;;
12429;SDS011;6279;42.192;24.326;2023-05-07T04:19:37;9.77;;;6.17;;
12429;SDS011;6279;42.192;24.326;2023-05-07T04:22:02;10.03;;;6.53;;
12429;SDS011;6279;42.192;24.326;2023-05-07T04:24:30;9.03;;;6.17;;
12429;SDS011;6279;42.192;24.326;2023-05-07T04:26:58;10.43;;;5.83;;
12429;SDS011;6279;42.192;24.326;2023-05-07T04:29:23;9.37;;;6.70;;
12429;SDS011;6279;42.192;24.326;2023-05-07T04:31:49;7.70;;;6.10;;
12429;SDS011;6279;42.192;24.326;2023-05-07T04:34:14;7.43;;;6.07;;
12429;SDS011;6279;42.192;24.326;2023-05-07T04:36:41;8.17;;;5.67;;
12429;SDS011;6279;42.192;24.326;2023-05-07T04:39:07;6.40;;;5.60;;
12429;SDS011;6279;42.192;24.326;2023-05-07T04:41:33;7.47;;;5.83;;
12429;SDS011;6279;42.192;24.326;2023-05-07T04:43:58;7.10;;;5.80;;
12429;SDS011;6279;42.192;24.326;2023-05-07T04:46:24;7.40;;;6.00;;
12429;SDS011;6279;42.192;24.326;2023-05-07T04:48:49;7.03;;;6.07;;
12429;SDS011;6279;42.192;24.326;2023-05-07T04:51:15;7.93;;;5.80;;
12429;SDS011;6279;42.192;24.326;2023-05-07T04:53:40;6.33;;;5.70;;
12429;SDS011;6279;42.192;24.326;2023-05-07T04:56:06;6.73;;;5.77;;
12429;SDS011;6279;42.192;24.326;2023-05-07T04:58:31;9.63;;;6.13;;
12429;SDS011;6279;42.192;24.326;2023-05-07T05:00:57;7.10;;;5.40;;
12429;SDS011;6279;42.192;24.326;2023-05-07T05:03:23;8.17;;;5.83;;
12429;SDS011;6279;42.192;24.326;2023-05-07T05:05:49;7.60;;;6.13;;
12429;SDS011;6279;42.192;24.326;2023-05-07T05:08:14;7.20;;;6.27;;
12429;SDS011;6279;42.192;24.326;2023-05-07T05:10:40;6.57;;;5.90;;
12429;SDS011;6279;42.192;24.326;2023-05-07T05:13:06;7.43;;;5.43;;
12429;SDS011;6279;42.192;24.326;2023-05-07T05:15:32;6.63;;;5.63;;
12429;SDS011;6279;42.192;24.326;2023-05-07T05:17:58;6.03;;;5.23;;
12429;SDS011;6279;42.192;24.326;2023-05-07T05:20:23;6.93;;;5.60;;
12429;SDS011;6279;42.192;24.326;2023-05-07T05:22:49;5.97;;;5.37;;
12429;SDS011;6279;42.192;24.326;2023-05-07T05:25:14;7.93;;;5.53;;
12429;SDS011;6279;42.192;24.326;2023-05-07T05:27:40;7.97;;;5.87;;
12429;SDS011;6279;42.192;24.326;2023-05-07T05:30:05;6.07;;;5.07;;
12429;SDS011;6279;42.192;24.326;2023-05-07T05:32:31;8.60;;;5.30;;
12429;SDS011;6279;42.192;24.326;2023-05-07T05:34:56;6.27;;;5.67;;
12429;SDS011;6279;42.192;24.326;2023-05-07T05:37:22;6.43;;;5.77;;
12429;SDS011;6279;42.192;24.326;2023-05-07T05:39:47;8.00;;;5.50;;
12429;SDS011;6279;42.192;24.326;2023-05-07T05:42:13;7.33;;;5.67;;
12429;SDS011;6279;42.192;24.326;2023-05-07T05:44:38;9.30;;;6.10;;
12429;SDS011;6279;42.192;24.326;2023-05-07T05:47:03;6.40;;;5.90;;
12429;SDS011;6279;42.192;24.326;2023-05-07T05:49:29;10.23;;;5.27;;
12429;SDS011;6279;42.192;24.326;2023-05-07T05:51:54;8.13;;;6.10;;
12429;SDS011;6279;42.192;24.326;2023-05-07T05:54:21;6.20;;;5.40;;
12429;SDS011;6279;42.192;24.326;2023-05-07T05:56:46;8.10;;;5.47;;
12429;SDS011;6279;42.192;24.326;2023-05-07T05:59:12;6.03;;;4.70;;
12429;SDS011;6279;42.192;24.326;2023-05-07T06:01:37;6.17;;;4.77;;
12429;SDS011;6279;42.192;24.326;2023-05-07T06:04:03;6.30;;;4.90;;
12429;SDS011;6279;42.192;24.326;2023-05-07T06:06:29;5.77;;;5.17;;
12429;SDS011;6279;42.192;24.326;2023-05-07T06:08:57;6.47;;;4.57;;
12429;SDS011;6279;42.192;24.326;2023-05-07T06:11:23;6.40;;;3.77;;
12429;SDS011;6279;42.192;24.326;2023-05-07T06:13:48;5.30;;;3.50;;
12429;SDS011;6279;42.192;24.326;2023-05-07T06:16:14;5.50;;;4.00;;
12429;SDS011;6279;42.192;24.326;2023-05-07T06:18:40;5.73;;;4.07;;
12429;SDS011;6279;42.192;24.326;2023-05-07T06:21:05;6.83;;;3.50;;
12429;SDS011;6279;42.192;24.326;2023-05-07T06:23:31;4.43;;;3.53;;
12429;SDS011;6279;42.192;24.326;2023-05-07T06:25:56;9.20;;;4.13;;
12429;SDS011;6279;42.192;24.326;2023-05-07T06:28:21;6.80;;;4.03;;
12429;SDS011;6279;42.192;24.326;2023-05-07T06:30:47;6.63;;;4.10;;
12429;SDS011;6279;42.192;24.326;2023-05-07T06:33:14;7.03;;;4.00;;
12429;SDS011;6279;42.192;24.326;2023-05-07T06:35:40;4.17;;;3.23;;
12429;SDS011;6279;42.192;24.326;2023-05-07T06:38:06;5.00;;;3.60;;
12429;SDS011;6279;42.192;24.326;2023-05-07T06:40:31;6.53;;;3.70;;
12429;SDS011;6279;42.192;24.326;2023-05-07T06:42:56;4.63;;;3.70;;
12429;SDS011;6279;42.192;24.326;2023-05-07T06:45:22;4.73;;;3.60;;
12429;SDS011;6279;42.192;24.326;2023-05-07T06:47:47;4.50;;;3.70;;
12429;SDS011;6279;42.192;24.326;2023-05-07T06:50:12;5.53;;;3.57;;
12429;SDS011;6279;42.192;24.326;2023-05-07T06:52:38;6.60;;;3.80;;
12429;SDS011;6279;42.192;24.326;2023-05-07T06:55:04;4.10;;;3.60;;
12429;SDS011;6279;42.192;24.326;2023-05-07T06:57:30;7.27;;;3.37;;
12429;SDS011;6279;42.192;24.326;2023-05-07T06:59:55;3.87;;;3.20;;
12429;SDS011;6279;42.192;24.326;2023-05-07T07:02:21;4.07;;;3.23;;
12429;SDS011;6279;42.192;24.326;2023-05-07T07:04:46;8.90;;;3.60;;
12429;SDS011;6279;42.192;24.326;2023-05-07T07:07:11;5.40;;;4.00;;
12429;SDS011;6279;42.192;24.326;2023-05-07T07:09:37;7.00;;;3.60;;
12429;SDS011;6279;42.192;24.326;2023-05-07T07:12:02;5.77;;;3.70;;
12429;SDS011;6279;42.192;24.326;2023-05-07T07:14:28;5.63;;;3.80;;
12429;SDS011;6279;42.192;24.326;2023-05-07T07:16:53;3.93;;;3.53;;
12429;SDS011;6279;42.192;24.326;2023-05-07T07:19:18;5.83;;;3.57;;
12429;SDS011;6279;42.192;24.326;2023-05-07T07:21:45;4.35;;;3.60;;
12429;SDS011;6279;42.192;24.326;2023-05-07T07:24:10;4.30;;;3.40;;
12429;SDS011;6279;42.192;24.326;2023-05-07T07:26:36;7.57;;;3.83;;
12429;SDS011;6279;42.192;24.326;2023-05-07T07:29:01;7.28;;;3.88;;
12429;SDS011;6279;42.192;24.326;2023-05-07T07:31:26;4.40;;;2.88;;
12429;SDS011;6279;42.192;24.326;2023-05-07T07:33:52;4.65;;;3.50;;
12429;SDS011;6279;42.192;24.326;2023-05-07T07:36:17;3.83;;;3.40;;
12429;SDS011;6279;42.192;24.326;2023-05-07T07:38:43;5.97;;;3.70;;
12429;SDS011;6279;42.192;24.326;2023-05-07T07:41:08;6.45;;;3.80;;
12429;SDS011;6279;42.192;24.326;2023-05-07T07:43:34;4.18;;;3.65;;
12429;SDS011;6279;42.192;24.326;2023-05-07T07:46:00;5.40;;;3.70;;
12429;SDS011;6279;42.192;24.326;2023-05-07T07:48:26;5.38;;;3.50;;
12429;SDS011;6279;42.192;24.326;2023-05-07T07:50:51;5.22;;;3.97;;
12429;SDS011;6279;42.192;24.326;2023-05-07T07:53:17;6.30;;;3.50;;
12429;SDS011;6279;42.192;24.326;2023-05-07T07:55:43;3.47;;;3.13;;
12429;SDS011;6279;42.192;24.326;2023-05-07T07:58:09;7.70;;;3.78;;
12429;SDS011;6279;42.192;24.326;2023-05-07T08:00:34;5.72;;;4.00;;
12429;SDS011;6279;42.192;24.326;2023-05-07T08:03:00;5.75;;;3.58;;
12429;SDS011;6279;42.192;24.326;2023-05-07T08:05:26;7.60;;;3.50;;
12429;SDS011;6279;42.192;24.326;2023-05-07T08:07:51;6.40;;;3.90;;
12429;SDS011;6279;42.192;24.326;2023-05-07T08:10:18;7.25;;;3.30;;
12429;SDS011;6279;42.192;24.326;2023-05-07T08:12:48;3.65;;;2.63;;
12429;SDS011;6279;42.192;24.326;2023-05-07T08:15:14;4.63;;;3.13;;
12429;SDS011;6279;42.192;24.326;2023-05-07T08:17:39;4.80;;;2.90;;
12429;SDS011;6279;42.192;24.326;2023-05-07T08:20:05;5.13;;;2.92;;
12429;SDS011;6279;42.192;24.326;2023-05-07T08:22:31;5.63;;;3.35;;
12429;SDS011;6279;42.192;24.326;2023-05-07T08:24:57;5.18;;;2.95;;
12429;SDS011;6279;42.192;24.326;2023-05-07T08:27:22;5.85;;;3.08;;
12429;SDS011;6279;42.192;24.326;2023-05-07T08:29:48;5.35;;;3.38;;
12429;SDS011;6279;42.192;24.326;2023-05-07T08:32:13;3.17;;;2.85;;
12429;SDS011;6279;42.192;24.326;2023-05-07T08:34:39;3.10;;;2.80;;
12429;SDS011;6279;42.192;24.326;2023-05-07T08:37:05;3.95;;;3.15;;
12429;SDS011;6279;42.192;24.326;2023-05-07T08:39:30;3.10;;;2.80;;
12429;SDS011;6279;42.192;24.326;2023-05-07T08:41:56;4.72;;;2.75;;
12429;SDS011;6279;42.192;24.326;2023-05-07T08:44:26;4.63;;;2.58;;
12429;SDS011;6279;42.192;24.326;2023-05-07T08:46:53;5.72;;;3.03;;
12429;SDS011;6279;42.192;24.326;2023-05-07T08:49:20;4.60;;;3.40;;
12429;SDS011;6279;42.192;24.326;2023-05-07T08:51:46;6.82;;;3.20;;
12429;SDS011;6279;42.192;24.326;2023-05-07T08:54:11;4.15;;;3.05;;
12429;SDS011;6279;42.192;24.326;2023-05-07T08:56:41;4.22;;;2.90;;
12429;SDS011;6279;42.192;24.326;2023-05-07T08:59:06;4.18;;;2.72;;
12429;SDS011;6279;42.192;24.326;2023-05-07T09:01:31;3.25;;;2.95;;
12429;SDS011;6279;42.192;24.326;2023-05-07T09:03:57;7.35;;;3.28;;
12429;SDS011;6279;42.192;24.326;2023-05-07T09:06:23;4.82;;;3.13;;
12429;SDS011;6279;42.192;24.326;2023-05-07T09:08:49;5.50;;;3.63;;
12429;SDS011;6279;42.192;24.326;2023-05-07T09:11:22;3.75;;;2.67;;
12429;SDS011;6279;42.192;24.326;2023-05-07T09:13:48;5.00;;;3.00;;
12429;SDS011;6279;42.192;24.326;2023-05-07T09:16:14;4.35;;;2.88;;
12429;SDS011;6279;42.192;24.326;2023-05-07T09:18:41;6.38;;;3.00;;
12429;SDS011;6279;42.192;24.326;2023-05-07T09:21:10;5.47;;;3.00;;
12429;SDS011;6279;42.192;24.326;2023-05-07T09:23:37;4.97;;;2.60;;
12429;SDS011;6279;42.192;24.326;2023-05-07T09:26:02;3.80;;;2.88;;
12429;SDS011;6279;42.192;24.326;2023-05-07T09:28:29;6.20;;;2.80;;
12429;SDS011;6279;42.192;24.326;2023-05-07T09:30:55;4.97;;;2.90;;
12429;SDS011;6279;42.192;24.326;2023-05-07T09:33:20;6.38;;;3.35;;
12429;SDS011;6279;42.192;24.326;2023-05-07T09:35:46;3.45;;;2.70;;
12429;SDS011;6279;42.192;24.326;2023-05-07T09:38:16;4.28;;;2.97;;
12429;SDS011;6279;42.192;24.326;2023-05-07T09:40:44;5.78;;;2.50;;
12429;SDS011;6279;42.192;24.326;2023-05-07T09:43:10;6.38;;;2.90;;
12429;SDS011;6279;42.192;24.326;2023-05-07T09:45:36;2.90;;;2.53;;
12429;SDS011;6279;42.192;24.326;2023-05-07T09:48:04;6.63;;;2.78;;
12429;SDS011;6279;42.192;24.326;2023-05-07T09:50:35;4.78;;;2.80;;
12429;SDS011;6279;42.192;24.326;2023-05-07T09:53:04;2.97;;;2.33;;
12429;SDS011;6279;42.192;24.326;2023-05-07T09:55:30;3.47;;;2.42;;
12429;SDS011;6279;42.192;24.326;2023-05-07T09:57:56;3.30;;;2.70;;
12429;SDS011;6279;42.192;24.326;2023-05-07T10:00:22;3.40;;;2.33;;
12429;SDS011;6279;42.192;24.326;2023-05-07T10:02:49;2.88;;;2.58;;
12429;SDS011;6279;42.192;24.326;2023-05-07T10:05:17;4.10;;;2.72;;
12429;SDS011;6279;42.192;24.326;2023-05-07T10:07:44;4.90;;;2.30;;
12429;SDS011;6279;42.192;24.326;2023-05-07T10:10:10;5.30;;;3.00;;
12429;SDS011;6279;42.192;24.326;2023-05-07T10:12:35;10.95;;;9.82;;
12429;SDS011;6279;42.192;24.326;2023-05-07T10:15:09;4.65;;;2.60;;
12429;SDS011;6279;42.192;24.326;2023-05-07T10:17:36;3.38;;;2.80;;
12429;SDS011;6279;42.192;24.326;2023-05-07T10:20:02;3.63;;;2.55;;
12429;SDS011;6279;42.192;24.326;2023-05-07T10:22:30;7.22;;;2.58;;
12429;SDS011;6279;42.192;24.326;2023-05-07T10:25:14;4.35;;;2.83;;
12429;SDS011;6279;42.192;24.326;2023-05-07T10:27:43;3.20;;;2.58;;
12429;SDS011;6279;42.192;24.326;2023-05-07T10:32:53;3.10;;;2.60;;
12429;SDS011;6279;42.192;24.326;2023-05-07T10:35:22;3.80;;;2.70;;
12429;SDS011;6279;42.192;24.326;2023-05-07T10:37:51;4.85;;;3.00;;
12429;SDS011;6279;42.192;24.326;2023-05-07T10:40:17;3.55;;;2.63;;
12429;SDS011;6279;42.192;24.326;2023-05-07T10:42:54;4.68;;;2.67;;
12429;SDS011;6279;42.192;24.326;2023-05-07T10:45:27;3.28;;;2.33;;
12429;SDS011;6279;42.192;24.326;2023-05-07T10:50:37;3.35;;;2.63;;
12429;SDS011;6279;42.192;24.326;2023-05-07T10:55:44;3.33;;;2.40;;
12429;SDS011;6279;42.192;24.326;2023-05-07T10:58:22;2.85;;;2.47;;
12429;SDS011;6279;42.192;24.326;2023-05-07T11:00:55;5.60;;;2.50;;
12429;SDS011;6279;42.192;24.326;2023-05-07T11:03:22;3.10;;;2.50;;
12429;SDS011;6279;42.192;24.326;2023-05-07T11:05:47;4.60;;;2.70;;
12429;SDS011;6279;42.192;24.326;2023-05-07T11:08:52;3.15;;;2.45;;
12429;SDS011;6279;42.192;24.326;2023-05-07T11:11:18;2.67;;;2.33;;
12429;SDS011;6279;42.192;24.326;2023-05-07T11:13:47;4.80;;;2.33;;
12429;SDS011;6279;42.192;24.326;2023-05-07T11:18:46;2.60;;;2.38;;
12429;SDS011;6279;42.192;24.326;2023-05-07T11:21:14;2.22;;;2.03;;
12429;SDS011;6279;42.192;24.326;2023-05-07T11:24:07;2.97;;;2.15;;
12429;SDS011;6279;42.192;24.326;2023-05-07T11:27:06;4.60;;;2.67;;
12429;SDS011;6279;42.192;24.326;2023-05-07T11:29:25;8.15;;;2.30;;
12429;SDS011;6279;42.192;24.326;2023-05-07T11:31:54;3.50;;;2.25;;
12429;SDS011;6279;42.192;24.326;2023-05-07T11:34:21;6.85;;;2.97;;
12429;SDS011;6279;42.192;24.326;2023-05-07T11:36:47;3.40;;;2.25;;
12429;SDS011;6279;42.192;24.326;2023-05-07T11:39:26;14.05;;;6.57;;
12429;SDS011;6279;42.192;24.326;2023-05-07T11:41:57;3.10;;;2.40;;
12429;SDS011;6279;42.192;24.326;2023-05-07T11:44:23;3.03;;;2.60;;
12429;SDS011;6279;42.192;24.326;2023-05-07T11:46:49;2.78;;;2.50;;
12429;SDS011;6279;42.192;24.326;2023-05-07T11:49:14;3.72;;;2.30;;
12429;SDS011;6279;42.192;24.326;2023-05-07T11:51:40;3.15;;;2.60;;
12429;SDS011;6279;42.192;24.326;2023-05-07T11:54:07;3.47;;;2.50;;
12429;SDS011;6279;42.192;24.326;2023-05-07T11:56:34;2.72;;;2.15;;
12429;SDS011;6279;42.192;24.326;2023-05-07T11:59:00;5.10;;;2.70;;
12429;SDS011;6279;42.192;24.326;2023-05-07T12:01:26;4.53;;;2.33;;
12429;SDS011;6279;42.192;24.326;2023-05-07T12:03:51;3.95;;;2.20;;
12429;SDS011;6279;42.192;24.326;2023-05-07T12:06:17;3.30;;;2.45;;
12429;SDS011;6279;42.192;24.326;2023-05-07T12:08:43;6.00;;;2.38;;
12429;SDS011;6279;42.192;24.326;2023-05-07T12:11:12;2.78;;;2.25;;
12429;SDS011;6279;42.192;24.326;2023-05-07T12:13:39;3.25;;;2.25;;
12429;SDS011;6279;42.192;24.326;2023-05-07T12:16:06;3.58;;;2.50;;
12429;SDS011;6279;42.192;24.326;2023-05-07T12:18:32;11.18;;;2.75;;
12429;SDS011;6279;42.192;24.326;2023-05-07T12:20:59;3.15;;;2.58;;
12429;SDS011;6279;42.192;24.326;2023-05-07T12:23:26;4.45;;;2.60;;
12429;SDS011;6279;42.192;24.326;2023-05-07T12:25:52;2.50;;;2.05;;
12429;SDS011;6279;42.192;24.326;2023-05-07T12:28:17;4.82;;;2.85;;
12429;SDS011;6279;42.192;24.326;2023-05-07T12:30:44;5.30;;;2.33;;
12429;SDS011;6279;42.192;24.326;2023-05-07T12:33:11;6.70;;;2.67;;
12429;SDS011;6279;42.192;24.326;2023-05-07T12:35:38;3.47;;;2.38;;
12429;SDS011;6279;42.192;24.326;2023-05-07T12:38:09;3.35;;;2.42;;
12429;SDS011;6279;42.192;24.326;2023-05-07T12:40:42;2.63;;;2.22;;
12429;SDS011;6279;42.192;24.326;2023-05-07T12:43:28;3.58;;;2.20;;
12429;SDS011;6279;42.192;24.326;2023-05-07T12:45:54;2.90;;;2.60;;
12429;SDS011;6279;42.192;24.326;2023-05-07T12:48:21;3.60;;;2.30;;
12429;SDS011;6279;42.192;24.326;2023-05-07T12:50:51;3.95;;;2.58;;
12429;SDS011;6279;42.192;24.326;2023-05-07T12:53:19;2.88;;;2.30;;
12429;SDS011;6279;42.192;24.326;2023-05-07T12:55:47;7.13;;;2.50;;
12429;SDS011;6279;42.192;24.326;2023-05-07T12:58:17;5.72;;;2.50;;
12429;SDS011;6279;42.192;24.326;2023-05-07T13:00:44;3.67;;;2.83;;
12429;SDS011;6279;42.192;24.326;2023-05-07T13:03:12;3.35;;;2.38;;
12429;SDS011;6279;42.192;24.326;2023-05-07T13:05:46;3.40;;;2.58;;
12429;SDS011;6279;42.192;24.326;2023-05-07T13:08:12;3.45;;;2.53;;
12429;SDS011;6279;42.192;24.326;2023-05-07T13:10:48;5.55;;;2.58;;
12429;SDS011;6279;42.192;24.326;2023-05-07T13:13:13;3.42;;;2.70;;
12429;SDS011;6279;42.192;24.326;2023-05-07T13:15:38;3.45;;;2.25;;
12429;SDS011;6279;42.192;24.326;2023-05-07T13:18:04;2.65;;;2.40;;
12429;SDS011;6279;42.192;24.326;2023-05-07T13:20:29;3.17;;;2.60;;
12429;SDS011;6279;42.192;24.326;2023-05-07T13:22:55;4.00;;;2.50;;
12429;SDS011;6279;42.192;24.326;2023-05-07T13:25:20;5.13;;;2.50;;
12429;SDS011;6279;42.192;24.326;2023-05-07T13:27:45;4.60;;;2.20;;
12429;SDS011;6279;42.192;24.326;2023-05-07T13:30:11;3.60;;;2.50;;
12429;SDS011;6279;42.192;24.326;2023-05-07T13:32:36;3.33;;;2.50;;
12429;SDS011;6279;42.192;24.326;2023-05-07T13:35:02;2.80;;;2.53;;
12429;SDS011;6279;42.192;24.326;2023-05-07T13:37:28;3.63;;;2.58;;
12429;SDS011;6279;42.192;24.326;2023-05-07T13:39:53;3.58;;;2.13;;
12429;SDS011;6279;42.192;24.326;2023-05-07T13:42:19;4.35;;;2.70;;
12429;SDS011;6279;42.192;24.326;2023-05-07T13:44:44;3.78;;;2.40;;
12429;SDS011;6279;42.192;24.326;2023-05-07T13:47:10;3.88;;;2.50;;
12429;SDS011;6279;42.192;24.326;2023-05-07T13:49:36;3.47;;;2.78;;
12429;SDS011;6279;42.192;24.326;2023-05-07T13:52:01;5.03;;;2.47;;
12429;SDS011;6279;42.192;24.326;2023-05-07T13:54:27;2.80;;;2.38;;
12429;SDS011;6279;42.192;24.326;2023-05-07T13:56:52;3.40;;;2.20;;
12429;SDS011;6279;42.192;24.326;2023-05-07T13:59:17;2.95;;;2.65;;
12429;SDS011;6279;42.192;24.326;2023-05-07T14:01:43;4.28;;;2.33;;
12429;SDS011;6279;42.192;24.326;2023-05-07T14:04:08;4.70;;;3.00;;
12429;SDS011;6279;42.192;24.326;2023-05-07T14:06:33;6.13;;;2.60;;
12429;SDS011;6279;42.192;24.326;2023-05-07T14:08:59;5.40;;;3.08;;
12429;SDS011;6279;42.192;24.326;2023-05-07T14:11:25;2.58;;;2.38;;
12429;SDS011;6279;42.192;24.326;2023-05-07T14:13:50;2.40;;;2.20;;
12429;SDS011;6279;42.192;24.326;2023-05-07T14:16:15;2.58;;;2.38;;
12429;SDS011;6279;42.192;24.326;2023-05-07T14:18:41;3.10;;;2.67;;
12429;SDS011;6279;42.192;24.326;2023-05-07T14:21:06;3.78;;;2.30;;
12429;SDS011;6279;42.192;24.326;2023-05-07T14:23:32;6.78;;;2.75;;
12429;SDS011;6279;42.192;24.326;2023-05-07T14:25:58;4.55;;;2.60;;
12429;SDS011;6279;42.192;24.326;2023-05-07T14:28:23;3.55;;;2.80;;
12429;SDS011;6279;42.192;24.326;2023-05-07T14:30:49;4.28;;;2.60;;
12429;SDS011;6279;42.192;24.326;2023-05-07T14:33:14;5.13;;;2.80;;
12429;SDS011;6279;42.192;24.326;2023-05-07T14:35:39;3.15;;;2.60;;
12429;SDS011;6279;42.192;24.326;2023-05-07T14:38:05;3.13;;;2.50;;
12429;SDS011;6279;42.192;24.326;2023-05-07T14:40:30;6.97;;;2.70;;
12429;SDS011;6279;42.192;24.326;2023-05-07T14:42:56;3.50;;;2.88;;
12429;SDS011;6279;42.192;24.326;2023-05-07T14:45:22;3.58;;;3.03;;
12429;SDS011;6279;42.192;24.326;2023-05-07T14:47:48;4.80;;;2.90;;
12429;SDS011;6279;42.192;24.326;2023-05-07T14:50:13;4.83;;;2.77;;
12429;SDS011;6279;42.192;24.326;2023-05-07T14:52:39;3.37;;;2.70;;